Time;durP1;ratioP1;P1;durP2;ratioP2;P2;SDS_P1;SDS_P2;PMS_P1;PMS_P2;Temp;Humidity;BMP_temperature;BMP_pressure;BME280_temperature;BME280_humidity;BME280_pressure;Samples;Min_cycle;Max_cycle;Signal;HPM_P1;HPM_P2
2023/03/01 00:01:04;;;;;;;10.85;4.03;;;;;;;4.23;51.61;101853.06;5095511;28;20391;-59
2023/03/01 00:03:30;;;;;;;10.65;4.45;;;;;;;4.15;51.67;101852.84;5095935;28;20086;-60
2023/03/01 00:05:56;;;;;;;8.68;3.90;;;;;;;4.09;51.96;101847.47;5095545;28;20424;-59
2023/03/01 00:08:21;;;;;;;8.18;3.65;;;;;;;4.13;51.75;101844.09;5103990;28;20036;-60
2023/03/01 00:10:47;;;;;;;9.75;4.07;;;;;;;4.24;51.50;101846.13;5100045;28;20073;-59
2023/03/01 00:13:12;;;;;;;9.25;4.13;;;;;;;4.22;51.59;101845.19;5096730;28;20383;-59
2023/03/01 00:15:39;;;;;;;6.95;3.42;;;;;;;4.11;51.99;101845.81;5099858;28;20386;-60
2023/03/01 00:18:05;;;;;;;11.00;3.70;;;;;;;4.09;51.97;101839.66;5107612;28;20047;-60
2023/03/01 00:20:31;;;;;;;9.38;4.05;;;;;;;4.03;52.39;101836.00;5097303;28;20020;-60
2023/03/01 00:22:56;;;;;;;9.40;4.25;;;;;;;4.19;51.90;101838.22;5070812;28;20045;-59
2023/03/01 00:25:21;;;;;;;8.38;3.17;;;;;;;4.24;51.87;101830.53;5107208;28;20467;-59
2023/03/01 00:27:48;;;;;;;7.95;3.80;;;;;;;4.31;51.76;101840.22;5110434;28;20470;-59
2023/03/01 00:30:14;;;;;;;8.25;3.45;;;;;;;4.35;51.60;101831.66;5108315;28;20048;-59
2023/03/01 00:32:40;;;;;;;11.48;4.22;;;;;;;4.27;52.20;101841.91;5103833;28;20043;-60
2023/03/01 00:35:05;;;;;;;11.23;4.47;;;;;;;4.11;52.51;101835.41;5096542;28;20545;-59
2023/03/01 00:37:31;;;;;;;10.35;4.90;;;;;;;3.92;52.88;101836.59;5093851;28;20040;-60
2023/03/01 00:39:56;;;;;;;10.02;4.40;;;;;;;3.77;53.75;101830.06;5096315;28;20059;-59
2023/03/01 00:42:23;;;;;;;11.27;4.75;;;;;;;3.85;53.39;101828.56;5108145;28;20115;-59
2023/03/01 00:44:48;;;;;;;8.15;3.95;;;;;;;3.96;53.12;101832.34;5081909;28;20086;-60
2023/03/01 00:47:14;;;;;;;9.25;4.00;;;;;;;4.17;52.29;101832.94;5099218;28;20032;-58
2023/03/01 00:49:39;;;;;;;10.13;3.75;;;;;;;4.26;52.36;101841.84;5091176;28;20527;-59
2023/03/01 00:52:05;;;;;;;8.77;4.00;;;;;;;4.11;52.80;101842.28;5096530;28;20862;-59
2023/03/01 00:54:30;;;;;;;8.20;3.92;;;;;;;4.24;52.32;101844.41;5098536;28;20383;-59
2023/03/01 00:56:56;;;;;;;8.45;3.70;;;;;;;4.33;52.19;101838.56;5097386;28;20399;-60
2023/03/01 00:59:21;;;;;;;10.93;3.95;;;;;;;4.40;52.26;101835.31;5099760;28;20058;-59
2023/03/01 01:01:47;;;;;;;8.18;4.13;;;;;;;4.27;52.31;101831.50;5086888;28;20115;-60
2023/03/01 01:04:13;;;;;;;7.15;3.33;;;;;;;4.38;52.14;101831.75;5099492;28;20040;-59
2023/03/01 01:06:44;;;;;;;9.13;3.60;;;;;;;4.14;53.18;101832.84;5102917;28;20035;-60
2023/03/01 01:09:19;;;;;;;8.00;2.90;;;;;;;4.25;52.86;101827.06;5099675;28;20039;-59
2023/03/01 01:11:50;;;;;;;9.70;3.53;;;;;;;4.25;52.83;101819.28;5102254;28;20031;-60
2023/03/01 01:14:16;;;;;;;6.47;3.35;;;;;;;4.10;53.32;101831.00;5111394;28;20437;-59
2023/03/01 01:16:42;;;;;;;7.50;3.58;;;;;;;4.14;53.34;101813.75;5103916;28;20106;-59
2023/03/01 01:19:08;;;;;;;6.60;3.53;;;;;;;4.06;53.91;101813.56;5091171;28;20456;-59
2023/03/01 01:21:34;;;;;;;7.53;3.70;;;;;;;3.83;54.44;101807.72;5111670;28;20032;-58
2023/03/01 01:24:00;;;;;;;8.68;3.63;;;;;;;4.07;53.88;101810.13;5105093;28;20540;-58
2023/03/01 01:26:28;;;;;;;10.57;4.10;;;;;;;4.10;53.45;101817.13;5099251;28;20437;-58
2023/03/01 01:28:55;;;;;;;8.48;3.53;;;;;;;4.09;53.53;101808.44;5096907;28;20038;-58
2023/03/01 01:31:23;;;;;;;9.88;4.18;;;;;;;3.74;55.10;101809.16;5110229;28;20046;-59
2023/03/01 01:33:49;;;;;;;8.68;4.28;;;;;;;3.80;54.66;101809.34;5112438;28;20039;-58
2023/03/01 01:36:16;;;;;;;6.65;3.70;;;;;;;4.07;53.54;101810.13;5110679;27;20379;-59
2023/03/01 01:38:42;;;;;;;8.40;3.60;;;;;;;4.04;53.92;101814.38;5095272;27;20052;-58
2023/03/01 01:41:11;;;;;;;9.50;3.72;;;;;;;4.23;53.35;101802.72;5092602;28;20028;-58
2023/03/01 01:43:45;;;;;;;8.02;3.40;;;;;;;4.22;53.48;101799.25;5102508;28;20034;-58
2023/03/01 01:46:31;;;;;;;7.93;3.75;;;;;;;4.01;54.79;101794.34;5091313;28;20117;-58
2023/03/01 01:49:05;;;;;;;7.53;3.53;;;;;;;3.91;54.55;101792.31;5097212;28;20056;-57
2023/03/01 01:51:39;;;;;;;6.53;3.40;;;;;;;3.85;55.06;101781.75;5111123;28;20486;-59
2023/03/01 01:54:22;;;;;;;6.30;3.42;;;;;;;3.83;55.30;101786.00;5111342;28;20050;-58
2023/03/01 01:56:53;;;;;;;7.90;3.42;;;;;;;3.91;54.66;101779.31;5097767;28;20107;-58
2023/03/01 01:59:19;;;;;;;6.57;3.22;;;;;;;4.14;54.10;101775.63;5110525;28;20057;-58
2023/03/01 02:01:44;;;;;;;7.85;3.22;;;;;;;4.09;54.38;101772.03;5100500;28;20028;-58
2023/03/01 02:04:10;;;;;;;8.82;3.53;;;;;;;4.11;54.20;101782.47;5095959;28;20036;-57
2023/03/01 02:06:51;;;;;;;6.35;3.33;;;;;;;4.13;54.57;101770.38;5095213;28;20040;-58
2023/03/01 02:09:20;;;;;;;6.97;3.35;;;;;;;4.22;53.94;101777.56;5097504;28;20032;-58
2023/03/01 02:11:47;;;;;;;7.05;3.90;;;;;;;4.24;53.75;101774.16;5096511;28;20035;-59
2023/03/01 02:14:14;;;;;;;5.53;3.08;;;;;;;4.27;54.38;101776.84;5090928;28;20050;-59
2023/03/01 02:16:41;;;;;;;6.75;3.25;;;;;;;4.39;53.62;101763.28;5097746;28;20134;-58
2023/03/01 02:19:10;;;;;;;6.90;3.20;;;;;;;4.39;53.63;101758.94;5095903;28;20088;-58
2023/03/01 02:21:57;;;;;;;5.97;3.30;;;;;;;4.45;53.82;101756.50;5098363;28;20070;-59
2023/03/01 02:25:18;;;;;;;8.10;3.30;;;;;;;4.52;53.59;101751.44;5108120;28;20114;-59
2023/03/01 02:28:00;;;;;;;7.28;3.10;;;;;;;4.38;53.97;101753.69;5101096;28;20395;-58
2023/03/01 02:30:27;;;;;;;6.20;3.03;;;;;;;4.20;54.50;101760.19;5102407;28;20160;-59
2023/03/01 02:33:02;;;;;;;6.40;2.97;;;;;;;4.31;54.05;101756.97;5111345;28;20280;-59
2023/03/01 02:35:30;;;;;;;4.70;2.65;;;;;;;4.43;53.77;101750.38;5107766;28;20059;-59
2023/03/01 02:37:56;;;;;;;6.60;2.33;;;;;;;4.49;53.76;101761.78;5111437;28;20048;-59
2023/03/01 02:40:23;;;;;;;4.60;2.50;;;;;;;4.49;53.81;101762.66;5099558;28;20047;-58
2023/03/01 02:42:58;;;;;;;5.60;2.65;;;;;;;4.43;54.34;101762.50;5089836;28;20112;-58
2023/03/01 02:45:24;;;;;;;5.38;2.90;;;;;;;4.49;53.83;101757.44;5094847;28;20044;-58
2023/03/01 02:47:53;;;;;;;7.00;3.00;;;;;;;4.49;54.10;101752.25;5095660;28;20032;-58
2023/03/01 02:50:30;;;;;;;6.70;3.08;;;;;;;4.53;54.18;101750.59;5097510;28;20036;-59
2023/03/01 02:53:17;;;;;;;6.68;2.65;;;;;;;4.58;54.18;101755.06;5095150;28;20111;-59
2023/03/01 02:55:43;;;;;;;9.07;3.10;;;;;;;4.60;54.08;101758.59;5094223;28;20078;-58
2023/03/01 02:58:09;;;;;;;6.68;3.15;;;;;;;4.58;54.27;101759.41;5079165;28;20066;-58
2023/03/01 03:00:43;;;;;;;7.55;2.97;;;;;;;4.55;54.63;101765.44;5098617;28;20032;-58
2023/03/01 03:03:12;;;;;;;8.85;3.50;;;;;;;4.53;54.63;101769.69;5104760;28;20042;-58
2023/03/01 03:05:38;;;;;;;6.75;3.33;;;;;;;4.56;54.81;101766.31;5096111;28;20038;-59
2023/03/01 03:08:03;;;;;;;8.00;3.30;;;;;;;4.53;54.80;101763.63;5104975;28;20035;-58
2023/03/01 03:10:32;;;;;;;9.05;3.50;;;;;;;4.54;54.77;101766.25;5091058;28;20401;-57
2023/03/01 03:13:02;;;;;;;5.47;3.15;;;;;;;4.45;55.35;101758.22;5103364;28;20031;-58
2023/03/01 03:15:29;;;;;;;7.25;3.53;;;;;;;4.50;55.29;101754.00;5094024;28;20117;-58
2023/03/01 03:17:55;;;;;;;7.47;3.58;;;;;;;4.59;54.94;101751.63;5094837;28;20035;-58
2023/03/01 03:20:25;;;;;;;6.65;3.20;;;;;;;4.65;55.14;101746.56;5112931;28;20035;-58
2023/03/01 03:22:53;;;;;;;10.55;3.90;;;;;;;4.55;55.68;101738.47;5094414;28;20039;-58
2023/03/01 03:25:19;;;;;;;6.90;3.38;;;;;;;4.66;55.19;101734.41;5093758;28;20110;-58
2023/03/01 03:27:46;;;;;;;7.57;3.53;;;;;;;4.64;55.28;101720.50;5092072;28;20199;-58
2023/03/01 03:30:18;;;;;;;9.35;3.88;;;;;;;4.69;55.24;101717.16;5096707;28;20032;-58
2023/03/01 03:32:51;;;;;;;8.05;3.70;;;;;;;4.67;55.44;101721.47;5103528;28;20035;-58
2023/03/01 03:35:17;;;;;;;;;;;;;;;4.62;56.93;101709.16;5095482;28;20039;-58
2023/03/01 03:38:01;;;;;;;8.93;3.75;;;;;;;4.49;56.27;101710.59;5088958;28;19916;-58
2023/03/01 03:40:29;;;;;;;8.52;4.32;;;;;;;4.49;56.73;101718.41;5094470;28;20402;-58
2023/03/01 03:42:54;;;;;;;12.35;4.45;;;;;;;4.42;57.27;101706.94;5098145;28;20035;-58
2023/03/01 03:45:20;;;;;;;9.98;4.55;;;;;;;4.26;57.99;101693.53;5100800;28;20039;-58
2023/03/01 03:47:46;;;;;;;9.35;4.53;;;;;;;4.36;57.45;101703.34;5092503;28;20464;-59
2023/03/01 03:50:13;;;;;;;9.57;4.80;;;;;;;4.13;58.17;101693.22;5092748;28;20059;-57
2023/03/01 03:52:39;;;;;;;12.05;5.07;;;;;;;3.97;59.19;101698.00;5108404;28;20085;-58
2023/03/01 03:55:10;;;;;;;10.23;4.90;;;;;;;4.30;58.01;101713.56;5091888;28;20036;-58
2023/03/01 03:57:37;;;;;;;9.18;4.25;;;;;;;4.39;57.58;101708.63;5093920;28;20036;-58
2023/03/01 04:00:05;;;;;;;7.97;4.32;;;;;;;4.25;58.20;101700.47;5093348;28;20063;-58
2023/03/01 04:02:31;;;;;;;12.68;5.13;;;;;;;4.17;58.73;101696.78;5092075;28;20471;-58
2023/03/01 04:04:56;;;;;;;11.18;4.95;;;;;;;4.29;58.25;101696.22;5092088;28;20036;-58
2023/03/01 04:07:22;;;;;;;10.15;5.15;;;;;;;4.15;59.44;101701.97;5091745;28;20119;-58
2023/03/01 04:09:47;;;;;;;12.32;5.25;;;;;;;4.32;58.67;101701.50;5092466;28;20044;-58
2023/03/01 04:12:12;;;;;;;13.38;5.50;;;;;;;4.27;58.96;101703.09;5112078;28;20084;-59
2023/03/01 04:14:38;;;;;;;16.92;5.60;;;;;;;4.20;60.08;101691.66;5106673;28;20043;-59
2023/03/01 04:17:05;;;;;;;11.13;5.32;;;;;;;4.16;60.12;101697.63;5071332;28;20051;-59
2023/03/01 04:19:35;;;;;;;11.18;5.80;;;;;;;4.42;58.84;101687.84;5103183;28;20027;-59
2023/03/01 04:22:09;;;;;;;11.15;5.50;;;;;;;4.15;60.52;101691.56;5097061;28;20036;-58
2023/03/01 04:24:35;;;;;;;13.13;6.70;;;;;;;4.30;60.26;101691.03;5100597;28;20028;-58
2023/03/01 04:27:01;;;;;;;12.50;5.45;;;;;;;4.44;59.22;101691.41;5098887;28;20093;-58
2023/03/01 04:29:27;;;;;;;14.52;6.45;;;;;;;4.37;60.20;101694.69;5098521;28;20060;-58
2023/03/01 04:31:52;;;;;;;11.82;5.93;;;;;;;4.45;59.41;101699.22;5097777;28;20067;-58
2023/03/01 04:34:18;;;;;;;12.15;5.25;;;;;;;4.51;59.15;101698.50;5098901;28;20065;-58
2023/03/01 04:36:44;;;;;;;12.23;6.45;;;;;;;4.59;58.81;101690.88;5107019;28;20511;-59
2023/03/01 04:39:12;;;;;;;14.35;6.07;;;;;;;4.27;60.18;101693.59;5098170;28;20093;-57
2023/03/01 04:41:39;;;;;;;11.85;6.00;;;;;;;4.28;60.50;101694.47;5105576;28;20036;-58
2023/03/01 04:44:05;;;;;;;15.10;6.45;;;;;;;4.38;59.71;101689.50;5088870;28;20032;-58
2023/03/01 04:46:31;;;;;;;12.85;6.68;;;;;;;4.22;60.64;101696.91;5110908;28;20158;-59
2023/03/01 04:48:56;;;;;;;15.93;6.70;;;;;;;4.20;60.85;101692.53;5098397;28;20114;-58
2023/03/01 04:51:21;;;;;;;14.15;6.97;;;;;;;3.87;62.17;101689.97;5104754;28;20473;-58
2023/03/01 04:53:47;;;;;;;15.73;7.20;;;;;;;4.11;61.31;101686.22;5113161;28;20032;-60
2023/03/01 04:56:17;;;;;;;16.50;8.38;;;;;;;4.14;61.14;101683.69;5111458;28;20040;-58
2023/03/01 04:58:43;;;;;;;19.08;9.90;;;;;;;4.00;61.98;101685.97;5102068;28;20036;-58
2023/03/01 05:01:17;;;;;;;27.90;13.20;;;;;;;4.10;61.48;101669.72;5104398;28;20111;-59
2023/03/01 05:03:45;;;;;;;22.00;11.23;;;;;;;4.22;60.92;101669.16;5097563;28;20064;-56
2023/03/01 05:06:11;;;;;;;36.78;23.58;;;;;;;4.36;60.33;101669.50;5104780;28;20040;-58
2023/03/01 05:08:41;;;;;;;52.70;31.48;;;;;;;4.31;60.71;101676.31;5097024;28;20032;-59
2023/03/01 05:11:08;;;;;;;46.42;27.98;;;;;;;4.39;60.53;101678.28;5102302;28;20028;-58
2023/03/01 05:13:35;;;;;;;37.58;18.55;;;;;;;4.07;62.33;101679.16;5110342;28;20058;-58
2023/03/01 05:16:02;;;;;;;23.88;11.82;;;;;;;4.27;61.57;101671.88;5086255;28;20117;-58
2023/03/01 05:18:30;;;;;;;21.17;11.20;;;;;;;4.56;60.50;101678.66;5096338;28;20698;-57
2023/03/01 05:21:02;;;;;;;25.20;13.48;;;;;;;4.66;60.15;101682.34;5106243;28;20039;-57
2023/03/01 05:23:28;;;;;;;28.25;12.85;;;;;;;4.69;60.55;101685.03;5111195;28;20040;-58
2023/03/01 05:25:54;;;;;;;19.88;10.65;;;;;;;4.74;61.02;101690.34;5109170;27;20122;-59
2023/03/01 05:28:20;;;;;;;21.05;10.52;;;;;;;4.53;62.12;101694.22;5109533;28;20039;-58
2023/03/01 05:30:46;;;;;;;20.13;9.27;;;;;;;4.80;60.82;101691.38;5108895;28;20036;-56
2023/03/01 05:33:15;;;;;;;21.02;9.90;;;;;;;5.04;60.46;101701.47;5093490;28;20032;-58
2023/03/01 05:35:42;;;;;;;22.73;10.07;;;;;;;5.13;59.96;101693.84;5097453;28;20047;-58
2023/03/01 05:38:12;;;;;;;22.83;9.95;;;;;;;5.30;59.48;101688.09;5100633;28;20044;-58
2023/03/01 05:40:39;;;;;;;21.88;10.60;;;;;;;5.14;60.56;101682.56;5104711;28;20036;-58
2023/03/01 05:43:05;;;;;;;29.05;11.73;;;;;;;5.15;60.43;101673.91;5103039;27;20035;-58
2023/03/01 05:45:32;;;;;;;25.70;10.93;;;;;;;5.11;60.48;101672.09;5094705;28;20081;-59
2023/03/01 05:47:58;;;;;;;21.85;10.40;;;;;;;5.34;59.75;101680.38;5097098;28;20042;-59
2023/03/01 05:50:29;;;;;;;22.73;10.15;;;;;;;5.43;59.55;101679.69;5096162;28;20051;-59
2023/03/01 05:53:01;;;;;;;26.17;10.63;;;;;;;5.46;60.01;101677.13;5096275;28;20107;-59
2023/03/01 05:55:28;;;;;;;23.23;11.15;;;;;;;5.62;59.30;101670.50;5102926;28;20035;-59
2023/03/01 05:57:53;;;;;;;22.42;10.55;;;;;;;5.53;59.62;101686.84;5100185;28;20035;-59
2023/03/01 06:00:22;;;;;;;25.25;10.75;;;;;;;5.35;60.65;101681.28;5103943;28;20195;-59
2023/03/01 06:02:48;;;;;;;29.20;12.00;;;;;;;5.08;61.74;101666.81;5097329;28;20039;-60
2023/03/01 06:05:14;;;;;;;23.83;11.63;;;;;;;5.08;61.97;101672.03;5097154;28;20687;-59
2023/03/01 06:07:40;;;;;;;26.05;11.35;;;;;;;5.10;62.05;101670.31;5110541;28;20467;-58
2023/03/01 06:10:08;;;;;;;25.95;11.13;;;;;;;4.98;62.92;101680.47;5101056;28;20042;-59
2023/03/01 06:12:35;;;;;;;26.52;11.27;;;;;;;5.20;61.97;101674.00;5095086;28;20387;-59
2023/03/01 06:15:01;;;;;;;21.83;10.13;;;;;;;5.32;61.57;101679.47;5100631;28;20028;-58
2023/03/01 06:17:30;;;;;;;20.73;9.60;;;;;;;5.16;62.61;101675.66;5104131;28;20030;-58
2023/03/01 06:19:56;;;;;;;23.08;10.18;;;;;;;5.35;61.69;101670.84;5091745;28;20127;-58
2023/03/01 06:22:21;;;;;;;23.40;11.18;;;;;;;5.42;61.36;101672.69;5089406;28;20497;-59
2023/03/01 06:24:46;;;;;;;23.27;10.73;;;;;;;5.53;61.05;101665.09;5102619;28;20032;-59
2023/03/01 06:27:12;;;;;;;31.10;13.43;;;;;;;5.41;61.31;101681.38;5104808;28;20040;-58
2023/03/01 06:29:37;;;;;;;29.80;13.13;;;;;;;5.32;61.53;101682.06;5089970;28;20059;-58
2023/03/01 06:32:03;;;;;;;24.73;11.23;;;;;;;5.64;60.53;101680.09;5104016;28;20040;-59
2023/03/01 06:34:29;;;;;;;27.20;12.32;;;;;;;5.72;60.06;101676.78;5098670;28;20047;-58
2023/03/01 06:36:55;;;;;;;26.42;12.35;;;;;;;5.90;59.81;101684.91;5109919;28;20034;-58
2023/03/01 06:39:20;;;;;;;24.88;11.02;;;;;;;6.20;59.07;101694.19;5108340;28;20487;-59
2023/03/01 06:41:46;;;;;;;27.27;12.82;;;;;;;6.03;59.62;101689.56;5103458;28;20032;-59
2023/03/01 06:44:11;;;;;;;29.52;11.52;;;;;;;6.11;59.36;101685.34;5108295;28;20035;-58
2023/03/01 06:46:38;;;;;;;29.27;12.70;;;;;;;6.25;58.94;101688.19;5108086;28;20451;-58
2023/03/01 06:49:07;;;;;;;25.60;11.43;;;;;;;6.31;58.93;101685.69;5112915;28;20039;-59
2023/03/01 06:51:32;;;;;;;36.33;11.50;;;;;;;5.96;60.01;101669.44;5114720;28;20032;-58
2023/03/01 06:53:58;;;;;;;30.75;12.07;;;;;;;6.22;59.22;101687.25;5113361;28;20028;-58
2023/03/01 06:56:24;;;;;;;28.67;11.20;;;;;;;6.37;58.97;101690.13;5114851;28;20031;-59
2023/03/01 06:58:49;;;;;;;36.40;13.15;;;;;;;5.79;60.96;101686.47;5114678;28;20107;-59
2023/03/01 07:01:14;;;;;;;26.20;10.95;;;;;;;6.06;60.06;101686.09;5113943;28;20027;-58
2023/03/01 07:03:40;;;;;;;32.60;14.10;;;;;;;6.05;60.12;101684.34;5091679;28;20032;-59
2023/03/01 07:06:05;;;;;;;35.22;12.98;;;;;;;6.02;60.35;101676.47;5093392;28;20123;-59
2023/03/01 07:08:31;;;;;;;29.33;11.98;;;;;;;6.33;59.55;101678.75;5093860;28;20426;-59
2023/03/01 07:11:01;;;;;;;35.58;12.43;;;;;;;6.26;60.04;101676.88;5092688;28;20173;-58
2023/03/01 07:13:27;;;;;;;34.00;13.13;;;;;;;6.29;59.75;101696.94;5102297;28;20066;-59
2023/03/01 07:15:52;;;;;;;30.95;11.98;;;;;;;6.42;59.71;101696.28;5079336;28;20120;-58
2023/03/01 07:18:18;;;;;;;27.55;11.40;;;;;;;6.52;59.21;101692.13;5091539;28;20498;-58
2023/03/01 07:20:43;;;;;;;36.70;12.77;;;;;;;6.15;60.52;101705.44;5097713;28;20546;-58
2023/03/01 07:23:09;;;;;;;33.65;13.00;;;;;;;6.04;60.60;101696.53;5100721;28;20478;-58
2023/03/01 07:25:35;;;;;;;28.70;11.98;;;;;;;6.14;60.61;101705.38;5100819;28;20074;-59
2023/03/01 07:28:01;;;;;;;23.40;11.20;;;;;;;6.55;59.18;101707.84;5101330;28;20035;-59
2023/03/01 07:30:28;;;;;;;25.02;11.75;;;;;;;6.70;58.79;101694.97;5098437;28;20108;-58
2023/03/01 07:32:55;;;;;;;33.00;13.80;;;;;;;6.39;59.78;101710.19;5105791;28;20043;-60
2023/03/01 07:35:21;;;;;;;29.80;13.00;;;;;;;6.44;59.86;101706.78;5108829;28;20042;-58
2023/03/01 07:37:46;;;;;;;33.38;14.95;;;;;;;6.52;59.39;101700.81;5097662;28;20048;-57
2023/03/01 07:40:12;;;;;;;29.92;14.77;;;;;;;6.52;59.45;101706.03;5114087;28;20031;-59
2023/03/01 07:42:38;;;;;;;33.38;15.48;;;;;;;6.42;60.07;101714.56;5102399;28;20032;-59
2023/03/01 07:45:05;;;;;;;34.78;14.63;;;;;;;6.46;59.82;101716.38;5093545;28;20497;-60
2023/03/01 07:47:31;;;;;;;32.95;14.80;;;;;;;6.60;59.63;101712.25;5093400;28;20115;-60
2023/03/01 07:49:56;;;;;;;35.45;15.70;;;;;;;6.90;58.93;101705.72;5093224;28;20410;-59
2023/03/01 07:52:22;;;;;;;34.67;14.95;;;;;;;7.07;58.38;101709.47;5093255;28;20043;-59
2023/03/01 07:54:47;;;;;;;39.50;16.80;;;;;;;7.13;58.23;101700.84;5093593;28;20040;-59
2023/03/01 07:57:13;;;;;;;37.33;16.60;;;;;;;7.03;58.45;101719.88;5114431;28;20058;-60
2023/03/01 07:59:38;;;;;;;34.40;16.33;;;;;;;7.31;57.88;101722.00;5115020;28;20062;-59
2023/03/01 08:02:04;;;;;;;32.40;15.65;;;;;;;7.38;57.50;101723.84;5118085;28;20028;-59
2023/03/01 08:04:29;;;;;;;32.85;15.35;;;;;;;7.55;57.09;101718.81;5104738;28;20023;-59
2023/03/01 08:06:55;;;;;;;30.17;13.43;;;;;;;6.96;58.40;101699.72;5100975;28;20062;-59
2023/03/01 08:09:21;;;;;;;29.10;13.77;;;;;;;7.25;57.88;101715.81;5118025;28;20127;-59
2023/03/01 08:11:46;;;;;;;42.58;17.88;;;;;;;7.42;57.56;101716.91;5117744;28;20043;-58
2023/03/01 08:14:12;;;;;;;31.17;13.60;;;;;;;7.52;57.14;101708.31;5118020;28;20039;-59
2023/03/01 08:16:37;;;;;;;25.98;13.32;;;;;;;7.47;57.15;101702.16;5118146;28;20035;-58
2023/03/01 08:19:07;;;;;;;23.58;11.15;;;;;;;7.50;57.19;101703.91;5117705;28;20038;-58
2023/03/01 08:21:34;;;;;;;24.92;11.68;;;;;;;7.39;57.43;101701.19;5117967;28;20036;-60
2023/03/01 08:24:01;;;;;;;22.33;11.15;;;;;;;7.28;57.46;101706.28;5117452;28;20080;-58
2023/03/01 08:26:26;;;;;;;23.63;11.10;;;;;;;7.38;57.34;101702.03;5117457;27;20040;-60
2023/03/01 08:28:52;;;;;;;20.67;9.82;;;;;;;7.37;57.45;101715.97;5117389;28;20027;-59
2023/03/01 08:31:27;;;;;;;20.58;10.52;;;;;;;7.63;56.82;101708.44;5117556;28;20119;-58
2023/03/01 08:33:55;;;;;;;18.40;9.80;;;;;;;7.40;57.23;101703.81;5117830;28;20030;-58
2023/03/01 08:36:29;;;;;;;18.33;8.70;;;;;;;7.39;57.46;101698.56;5117824;27;20039;-59
2023/03/01 08:38:55;;;;;;;21.67;10.35;;;;;;;7.31;57.54;101694.97;5117527;28;20062;-59
2023/03/01 08:41:20;;;;;;;16.45;8.55;;;;;;;7.43;57.32;101702.97;5101398;28;20398;-59
2023/03/01 08:43:46;;;;;;;17.70;9.05;;;;;;;7.25;57.76;101695.75;5117798;27;20374;-60
2023/03/01 08:46:12;;;;;;;16.73;8.10;;;;;;;7.52;57.08;101692.63;5111697;28;20019;-60
2023/03/01 08:48:38;;;;;;;19.02;10.00;;;;;;;7.68;56.71;101696.28;5096946;28;20491;-60
2023/03/01 08:51:18;;;;;;;19.42;9.65;;;;;;;7.76;56.57;101696.38;5103268;28;20035;-60
2023/03/01 08:53:44;;;;;;;17.27;8.93;;;;;;;7.51;57.13;101688.25;5111195;28;20497;-60
2023/03/01 08:56:10;;;;;;;17.55;9.80;;;;;;;7.97;55.94;101688.72;5095286;28;20116;-59
2023/03/01 08:58:37;;;;;;;20.48;10.00;;;;;;;8.23;55.60;101701.22;5096585;28;20115;-59
2023/03/01 09:01:15;;;;;;;13.80;8.02;;;;;;;8.13;55.78;101702.84;5096412;28;20051;-59
2023/03/01 09:03:41;;;;;;;16.15;8.52;;;;;;;8.08;55.90;101699.31;5096652;28;20028;-58
2023/03/01 09:06:07;;;;;;;19.17;9.68;;;;;;;8.14;55.69;101702.88;5094446;28;20043;-58
2023/03/01 09:08:45;;;;;;;18.67;9.57;;;;;;;8.29;55.43;101696.00;5096333;28;20089;-59
2023/03/01 09:11:12;;;;;;;23.55;10.43;;;;;;;8.34;55.11;101700.44;5096565;28;20036;-59
2023/03/01 09:13:38;;;;;;;17.42;9.27;;;;;;;8.12;55.78;101693.25;5096210;28;20425;-59
2023/03/01 09:16:06;;;;;;;16.48;8.88;;;;;;;8.50;54.74;101688.38;5094907;28;20467;-58
2023/03/01 09:18:32;;;;;;;18.25;9.73;;;;;;;8.54;54.91;101698.03;5095936;28;20028;-59
2023/03/01 09:21:06;;;;;;;19.17;10.13;;;;;;;8.71;54.36;101695.50;5096475;28;20036;-58
2023/03/01 09:23:39;;;;;;;17.88;9.65;;;;;;;8.95;54.05;101683.44;5096220;28;20035;-58
2023/03/01 09:26:06;;;;;;;20.15;9.65;;;;;;;9.10;53.49;101670.41;5096063;28;20066;-59
2023/03/01 09:28:32;;;;;;;17.08;9.35;;;;;;;8.82;54.23;101677.25;5096048;28;20040;-59
2023/03/01 09:31:01;;;;;;;13.15;8.13;;;;;;;8.78;54.30;101662.38;5089945;28;20035;-58
2023/03/01 09:33:28;;;;;;;15.88;7.65;;;;;;;8.72;54.57;101678.03;5116063;28;20047;-59
2023/03/01 09:35:58;;;;;;;13.90;7.45;;;;;;;9.06;53.83;101680.00;5116453;28;20032;-59
2023/03/01 09:38:24;;;;;;;13.55;7.82;;;;;;;8.78;54.28;101676.34;5114723;28;20059;-59
2023/03/01 09:40:49;;;;;;;13.98;7.80;;;;;;;9.24;53.39;101684.44;5116434;28;20032;-59
2023/03/01 09:43:30;;;;;;;34.75;9.32;;;;;;;9.52;52.93;101685.44;5114985;28;20067;-59
2023/03/01 09:46:03;;;;;;;13.60;7.75;;;;;;;9.35;53.18;101689.75;5116099;28;20031;-59
2023/03/01 09:48:31;;;;;;;;;;;;;;;9.11;53.66;101687.88;5116893;28;20373;-59
2023/03/01 09:50:57;;;;;;;14.35;7.32;;;;;;;9.35;53.17;101679.25;5115018;28;19911;-59
2023/03/01 09:53:31;;;;;;;14.98;8.45;;;;;;;9.12;53.65;101681.78;5114744;28;20040;-59
2023/03/01 09:56:04;;;;;;;14.00;7.82;;;;;;;9.07;53.73;101675.63;5115876;28;20035;-59
2023/03/01 09:58:55;;;;;;;13.70;7.45;;;;;;;9.20;53.42;101673.94;5116125;28;20525;-59
2023/03/01 10:01:27;;;;;;;16.40;8.57;;;;;;;9.20;53.64;101673.94;5116158;28;20028;-60
2023/03/01 10:04:03;;;;;;;14.37;8.03;;;;;;;9.29;53.46;101674.84;5115634;28;20388;-59
2023/03/01 10:06:29;;;;;;;14.75;8.07;;;;;;;9.48;52.90;101669.69;5114284;28;20282;-60
2023/03/01 10:09:16;;;;;;;15.70;8.18;;;;;;;9.38;53.02;101669.66;5115290;28;20394;-60
2023/03/01 10:11:48;;;;;;;12.27;7.43;;;;;;;9.61;52.64;101671.47;5114727;28;20382;-60
2023/03/01 10:14:37;;;;;;;13.63;7.38;;;;;;;9.71;52.24;101678.50;5115704;28;20027;-60
2023/03/01 10:17:07;;;;;;;15.02;8.38;;;;;;;9.89;52.13;101672.41;5113954;28;20087;-59
2023/03/01 10:19:38;;;;;;;15.68;8.35;;;;;;;9.90;52.13;101663.66;5115525;28;20084;-59
2023/03/01 10:22:15;;;;;;;13.43;7.30;;;;;;;10.14;51.38;101667.19;5115461;28;20074;-59
2023/03/01 10:24:42;;;;;;;16.33;8.23;;;;;;;10.19;51.52;101668.94;5115393;28;20050;-58
2023/03/01 10:27:23;;;;;;;13.82;7.60;;;;;;;10.21;51.50;101668.94;5109896;28;20402;-59
2023/03/01 10:30:17;;;;;;;13.70;7.85;;;;;;;10.30;51.14;101667.22;5112548;28;20425;-59
2023/03/01 10:32:51;;;;;;;15.52;7.80;;;;;;;10.54;50.67;101668.97;5115160;28;20031;-59
2023/03/01 10:35:19;;;;;;;13.15;7.18;;;;;;;10.53;50.69;101671.56;5114934;28;20036;-60
2023/03/01 10:37:58;;;;;;;17.42;10.10;;;;;;;10.44;50.55;101671.59;5114853;27;20086;-60
2023/03/01 10:40:23;;;;;;;12.77;8.02;;;;;;;10.41;50.92;101656.69;5115092;28;20034;-61
2023/03/01 10:42:49;;;;;;;14.63;7.72;;;;;;;10.44;50.78;101661.97;5114886;28;20028;-60
2023/03/01 10:45:35;;;;;;;14.05;8.10;;;;;;;10.54;50.64;101657.59;5114920;28;20050;-59
2023/03/01 10:48:08;;;;;;;13.80;8.00;;;;;;;10.63;50.46;101656.69;5113489;28;20040;-59
2023/03/01 10:50:34;;;;;;;;;;;;;;;10.65;50.63;101660.19;5115044;28;20035;-60
2023/03/01 10:53:04;;;;;;;12.50;6.95;;;;;;;10.63;50.45;101664.56;5113875;28;19916;-59
2023/03/01 10:55:39;;;;;;;13.73;7.22;;;;;;;10.88;50.15;101660.13;5114911;28;20034;-59
2023/03/01 10:58:20;;;;;;;16.70;8.10;;;;;;;11.08;49.43;101663.59;5114765;28;20178;-60
2023/03/01 11:01:17;;;;;;;13.77;7.60;;;;;;;10.90;50.06;101661.03;5114660;28;20030;-59
2023/03/01 11:03:43;;;;;;;11.18;7.30;;;;;;;11.13;49.87;101663.56;5094830;28;20451;-59
2023/03/01 11:06:11;;;;;;;12.63;7.00;;;;;;;11.10;49.43;101661.84;5095163;28;20036;-59
2023/03/01 11:08:46;;;;;;;14.38;7.25;;;;;;;11.05;49.24;101650.44;5094021;28;20483;-60
2023/03/01 11:11:14;;;;;;;17.90;9.00;;;;;;;10.92;50.05;101651.34;5093108;28;20383;-58
2023/03/01 11:14:16;;;;;;;14.23;7.88;;;;;;;11.04;50.08;101649.56;5095868;28;20032;-59
2023/03/01 11:16:44;;;;;;;16.25;8.07;;;;;;;10.97;49.92;101647.84;5088920;28;20094;-59
2023/03/01 11:19:10;;;;;;;17.23;8.65;;;;;;;11.02;50.30;101650.47;5100244;28;20119;-59
2023/03/01 11:22:11;;;;;;;16.17;7.70;;;;;;;10.74;49.96;101641.78;5103000;28;20122;-59
2023/03/01 11:24:45;;;;;;;11.07;6.78;;;;;;;10.89;49.91;101648.72;5114142;28;20066;-59
2023/03/01 11:27:23;;;;;;;14.00;6.88;;;;;;;10.91;49.78;101639.97;5109720;28;20032;-59
2023/03/01 11:30:03;;;;;;;12.48;6.85;;;;;;;11.16;49.65;101640.75;5111753;28;20035;-60
2023/03/01 11:32:38;;;;;;;14.00;6.93;;;;;;;11.19;49.15;101639.88;5112973;28;20035;-60